Time;durP1;ratioP1;P1;durP2;ratioP2;P2;SDS_P1;SDS_P2;PMS_P1;PMS_P2;Temp;Humidity;BMP_temperature;BMP_pressure;BME280_temperature;BME280_humidity;BME280_pressure;Samples;Min_cycle;Max_cycle;Signal;HPM_P1;HPM_P2
2022/06/11 00:00:30;;;;;;;3.17;1.47;;;14.40;99.90;;;;;;5073838;28;20543;-48
2022/06/11 00:02:57;;;;;;;3.43;2.07;;;14.40;99.90;;;;;;5074079;28;20440;-47
2022/06/11 00:05:24;;;;;;;2.50;2.23;;;14.40;99.90;;;;;;5074169;28;20452;-49
2022/06/11 00:07:52;;;;;;;2.00;1.80;;;14.30;99.90;;;;;;5073697;28;20964;-47
2022/06/11 00:10:20;;;;;;;4.50;2.30;;;14.30;99.90;;;;;;5073871;28;20472;-48
2022/06/11 00:12:47;;;;;;;2.60;1.77;;;14.30;99.90;;;;;;5073656;28;20933;-47
2022/06/11 00:15:14;;;;;;;2.07;1.70;;;14.30;99.90;;;;;;5073527;28;20444;-47
2022/06/11 00:17:41;;;;;;;2.97;1.90;;;14.30;99.90;;;;;;5073667;28;20562;-48
2022/06/11 00:20:11;;;;;;;2.10;1.90;;;14.30;99.90;;;;;;5073343;28;20523;-47
2022/06/11 00:22:38;;;;;;;2.30;1.90;;;14.30;99.90;;;;;;5073414;28;20444;-49
2022/06/11 00:25:07;;;;;;;3.83;2.00;;;14.30;99.90;;;;;;5073643;28;20960;-47
2022/06/11 00:27:34;;;;;;;2.30;2.10;;;14.30;99.90;;;;;;5073916;28;20515;-48
2022/06/11 00:30:00;;;;;;;2.23;2.00;;;14.20;99.90;;;;;;5072448;28;20479;-47
2022/06/11 00:32:28;;;;;;;2.33;1.60;;;14.20;99.90;;;;;;5073286;28;20693;-47
2022/06/11 00:34:58;;;;;;;2.73;1.70;;;14.20;99.90;;;;;;5073505;28;20486;-50
2022/06/11 00:37:25;;;;;;;3.17;2.13;;;14.20;99.90;;;;;;5073474;28;20488;-48
2022/06/11 00:39:52;;;;;;;1.80;1.50;;;14.20;99.90;;;;;;5073382;28;20485;-50
2022/06/11 00:42:31;;;;;;;2.63;1.67;;;14.20;99.90;;;;;;5073402;28;20483;-48
2022/06/11 00:45:24;;;;;;;3.87;1.97;;;14.10;99.90;;;;;;5073256;28;20448;-47
2022/06/11 00:47:56;;;;;;;4.73;2.30;;;14.10;99.90;;;;;;5073504;28;20456;-47
2022/06/11 00:50:27;;;;;;;2.20;2.00;;;14.00;99.90;;;;;;5072975;28;20480;-47
2022/06/11 00:52:58;;;;;;;2.80;2.40;;;13.90;99.90;;;;;;5073279;28;20432;-47
2022/06/11 00:55:28;;;;;;;2.30;1.90;;;14.00;99.90;;;;;;5073044;28;20531;-49
2022/06/11 00:58:02;;;;;;;2.70;2.13;;;14.00;99.90;;;;;;5072384;28;20480;-46
2022/06/11 01:00:32;;;;;;;2.63;1.80;;;14.00;99.90;;;;;;5072930;28;20449;-47
2022/06/11 01:03:00;;;;;;;2.50;2.20;;;13.80;99.90;;;;;;5072869;28;20521;-47
2022/06/11 01:05:30;;;;;;;2.30;2.10;;;13.80;99.90;;;;;;5073022;28;20447;-47
2022/06/11 01:08:45;;;;;;;2.97;2.37;;;13.80;99.90;;;;;;5072987;28;20514;-47
2022/06/11 01:11:34;;;;;;;2.37;2.10;;;13.70;99.90;;;;;;5032474;28;20459;-49
2022/06/11 01:14:21;;;;;;;4.53;2.10;;;13.70;99.90;;;;;;5061764;28;20454;-47
2022/06/11 01:16:57;;;;;;;2.47;1.83;;;13.40;99.90;;;;;;5072581;28;20456;-48
2022/06/11 01:19:45;;;;;;;2.77;2.17;;;13.30;99.90;;;;;;5072477;28;20443;-47
2022/06/11 01:22:40;;;;;;;3.23;2.47;;;13.50;99.90;;;;;;5072553;28;20945;-47
2022/06/11 01:25:17;;;;;;;2.63;1.83;;;13.50;99.90;;;;;;5073107;28;20445;-47
2022/06/11 01:27:59;;;;;;;2.20;1.57;;;13.50;99.90;;;;;;5072625;28;20976;-47
2022/06/11 01:30:30;;;;;;;2.87;2.00;;;13.60;99.90;;;;;;5072151;28;20480;-47
2022/06/11 01:33:07;;;;;;;2.70;2.10;;;13.50;99.90;;;;;;5072086;28;20522;-47
2022/06/11 01:35:42;;;;;;;2.57;2.10;;;13.40;99.90;;;;;;5072377;28;20451;-47
2022/06/11 01:38:21;;;;;;;2.20;1.90;;;13.40;99.90;;;;;;5072405;28;20479;-47
2022/06/11 01:40:52;;;;;;;2.20;1.80;;;13.30;99.90;;;;;;5071754;28;20817;-48
2022/06/11 01:43:24;;;;;;;2.50;2.10;;;13.30;99.90;;;;;;5071630;28;20652;-47
2022/06/11 01:45:53;;;;;;;2.17;1.67;;;13.30;99.90;;;;;;5072424;28;20444;-47
2022/06/11 01:48:23;;;;;;;2.40;1.80;;;13.20;99.90;;;;;;5072108;28;20460;-50
2022/06/11 01:51:02;;;;;;;1.97;1.73;;;13.30;99.90;;;;;;5071728;28;20525;-51
2022/06/11 01:53:41;;;;;;;2.47;2.20;;;13.20;99.90;;;;;;5072052;28;20436;-50
2022/06/11 01:56:30;;;;;;;2.27;2.00;;;13.20;99.90;;;;;;5072000;28;20429;-47
2022/06/11 01:59:10;;;;;;;2.40;2.20;;;13.20;99.90;;;;;;5127805;22;20499;-52
2022/06/11 02:01:49;;;;;;;2.77;1.87;;;13.30;99.90;;;;;;5072054;28;20424;-48
2022/06/11 02:04:22;;;;;;;2.13;1.73;;;13.30;99.90;;;;;;5071708;28;20816;-47
2022/06/11 02:06:58;;;;;;;2.43;2.00;;;13.30;99.90;;;;;;5071702;28;20467;-52
2022/06/11 02:09:33;;;;;;;3.33;2.13;;;13.30;99.90;;;;;;5071096;28;21022;-48
2022/06/11 02:12:16;;;;;;;4.83;2.30;;;13.20;99.90;;;;;;5071607;28;20539;-48
2022/06/11 02:14:50;;;;;;;2.43;2.03;;;13.30;99.90;;;;;;5071396;28;20523;-45
2022/06/11 02:17:23;;;;;;;2.47;2.03;;;13.20;99.90;;;;;;5071430;28;20991;-45
2022/06/11 02:19:55;;;;;;;2.40;1.87;;;13.20;99.90;;;;;;5071324;28;20476;-47
2022/06/11 02:22:25;;;;;;;2.17;1.90;;;13.10;99.90;;;;;;5071467;28;20436;-45
2022/06/11 02:24:55;;;;;;;2.23;2.00;;;13.00;99.90;;;;;;5072020;28;20479;-45
2022/06/11 02:27:25;;;;;;;2.70;2.20;;;12.70;99.90;;;;;;5071535;28;20495;-45
2022/06/11 02:29:54;;;;;;;2.53;2.33;;;12.80;99.90;;;;;;5071194;28;20945;-45
2022/06/11 02:32:24;;;;;;;2.10;1.90;;;12.90;99.90;;;;;;5071172;28;20445;-49
2022/06/11 02:34:54;;;;;;;2.60;1.70;;;12.90;99.90;;;;;;5071234;28;20968;-49
2022/06/11 02:37:24;;;;;;;3.80;2.10;;;13.00;99.90;;;;;;5071209;28;20480;-48
2022/06/11 02:39:54;;;;;;;2.67;1.90;;;13.10;99.90;;;;;;5070923;28;20487;-49
2022/06/11 02:42:23;;;;;;;3.13;1.80;;;13.20;99.90;;;;;;5071099;28;20454;-45
2022/06/11 02:44:50;;;;;;;2.70;1.97;;;13.20;99.90;;;;;;5071557;28;20533;-45
2022/06/11 02:47:20;;;;;;;3.20;1.77;;;13.20;99.90;;;;;;5071071;28;20487;-44
2022/06/11 02:49:48;;;;;;;2.17;1.83;;;13.10;99.90;;;;;;5070980;28;20483;-46
2022/06/11 02:52:18;;;;;;;2.27;2.00;;;13.10;99.90;;;;;;5071157;28;20483;-45
2022/06/11 02:54:49;;;;;;;2.90;2.03;;;13.20;99.90;;;;;;5071293;28;20472;-45
2022/06/11 02:57:20;;;;;;;2.33;1.93;;;13.20;99.90;;;;;;5070763;28;20440;-45
2022/06/11 02:59:49;;;;;;;2.07;1.67;;;13.10;99.90;;;;;;5071108;28;20772;-45
2022/06/11 03:02:17;;;;;;;2.70;2.13;;;13.00;99.90;;;;;;5070935;28;20437;-45
2022/06/11 03:04:44;;;;;;;2.00;1.80;;;12.80;99.90;;;;;;5071012;28;20472;-44
2022/06/11 03:07:13;;;;;;;2.43;1.70;;;12.90;99.90;;;;;;5070633;28;20468;-45
2022/06/11 03:09:41;;;;;;;1.77;1.60;;;13.00;99.90;;;;;;5071310;28;20517;-45
2022/06/11 03:12:10;;;;;;;2.50;2.30;;;13.10;99.90;;;;;;5070543;28;20444;-46
2022/06/11 03:14:38;;;;;;;3.63;1.93;;;13.10;99.90;;;;;;5070660;28;21017;-45
2022/06/11 03:17:06;;;;;;;2.40;1.80;;;13.10;99.90;;;;;;5071144;28;20445;-45
2022/06/11 03:19:33;;;;;;;4.87;1.97;;;13.00;99.90;;;;;;5070592;28;20567;-46
2022/06/11 03:22:00;;;;;;;6.13;2.27;;;13.00;99.90;;;;;;5071288;28;20472;-46
2022/06/11 03:24:29;;;;;;;2.87;2.00;;;13.00;99.90;;;;;;5070921;28;20475;-45
2022/06/11 03:26:57;;;;;;;2.47;1.50;;;13.00;99.90;;;;;;5070768;28;20513;-45
2022/06/11 03:29:25;;;;;;;4.17;1.90;;;13.00;99.90;;;;;;5070629;28;20510;-45
2022/06/11 03:31:53;;;;;;;2.47;1.80;;;12.90;99.90;;;;;;5070660;28;20497;-46
2022/06/11 03:34:21;;;;;;;3.43;2.10;;;12.90;99.90;;;;;;5070989;28;20475;-46
2022/06/11 03:36:49;;;;;;;1.97;1.70;;;13.00;99.90;;;;;;5070819;28;21017;-45
2022/06/11 03:39:16;;;;;;;3.50;2.20;;;13.00;99.90;;;;;;5070238;28;20482;-45
2022/06/11 03:41:45;;;;;;;2.90;1.70;;;12.90;99.90;;;;;;5070835;28;20440;-46
2022/06/11 03:44:12;;;;;;;1.80;1.50;;;12.90;99.90;;;;;;5070625;28;20436;-46
2022/06/11 03:46:39;;;;;;;4.33;1.90;;;12.90;99.90;;;;;;5070383;28;21130;-45
2022/06/11 03:49:07;;;;;;;2.20;1.87;;;12.90;99.90;;;;;;5070225;28;20903;-47
2022/06/11 03:51:35;;;;;;;1.90;1.60;;;12.80;99.90;;;;;;5070327;28;20468;-47
2022/06/11 03:54:02;;;;;;;1.60;1.43;;;12.80;99.90;;;;;;5070392;28;20540;-48
2022/06/11 03:56:29;;;;;;;3.03;2.10;;;12.80;99.90;;;;;;5070850;28;20444;-45
2022/06/11 03:58:58;;;;;;;3.27;2.50;;;12.70;99.90;;;;;;5069550;28;21019;-46
2022/06/11 04:01:28;;;;;;;2.70;1.83;;;12.80;99.90;;;;;;5070540;28;20479;-45
2022/06/11 04:03:58;;;;;;;4.63;2.17;;;12.80;99.90;;;;;;5070605;28;20444;-46
2022/06/11 04:06:27;;;;;;;5.37;2.03;;;12.80;99.90;;;;;;5073669;28;20490;-46
2022/06/11 04:08:54;;;;;;;2.60;1.90;;;12.80;99.90;;;;;;5073427;28;20822;-46
2022/06/11 04:11:22;;;;;;;2.27;2.07;;;12.90;99.90;;;;;;5073637;28;20779;-45
2022/06/11 04:13:51;;;;;;;1.60;1.50;;;12.90;99.90;;;;;;5074019;28;20444;-45
2022/06/11 04:16:28;;;;;;;1.80;1.50;;;12.80;99.90;;;;;;5073386;28;20509;-45
2022/06/11 04:18:56;;;;;;;3.37;1.60;;;12.70;99.90;;;;;;5073545;28;20483;-45
2022/06/11 04:21:24;;;;;;;2.10;1.90;;;12.70;99.90;;;;;;5073766;28;20494;-49
2022/06/11 04:23:54;;;;;;;2.53;1.83;;;12.70;99.90;;;;;;5073697;28;20497;-45
2022/06/11 04:26:23;;;;;;;2.13;1.93;;;12.70;99.90;;;;;;5073411;28;20530;-45
2022/06/11 04:28:51;;;;;;;2.17;1.97;;;12.80;99.90;;;;;;5072997;28;20488;-47
2022/06/11 04:31:19;;;;;;;2.23;1.70;;;12.80;99.90;;;;;;5073669;28;20479;-45
2022/06/11 04:33:50;;;;;;;3.23;2.30;;;12.70;99.90;;;;;;5073690;28;20859;-45
2022/06/11 04:36:18;;;;;;;2.33;1.70;;;12.70;99.90;;;;;;5073454;28;20863;-47
2022/06/11 04:38:45;;;;;;;2.00;1.80;;;12.70;99.90;;;;;;5073004;28;20558;-47
2022/06/11 04:41:13;;;;;;;2.83;1.90;;;12.70;99.90;;;;;;5073358;28;20937;-45
2022/06/11 04:43:41;;;;;;;2.33;1.87;;;12.70;99.90;;;;;;5073252;28;20445;-45
2022/06/11 04:46:08;;;;;;;2.70;1.57;;;12.70;99.90;;;;;;5073410;28;20486;-44
2022/06/11 04:48:35;;;;;;;3.10;1.97;;;12.80;99.90;;;;;;5073088;28;20461;-47
2022/06/11 04:51:04;;;;;;;3.33;2.30;;;12.90;99.90;;;;;;5072989;28;20480;-42
2022/06/11 04:53:32;;;;;;;1.93;1.73;;;12.90;99.90;;;;;;5073214;28;20505;-46
2022/06/11 04:55:59;;;;;;;2.77;2.00;;;12.90;99.90;;;;;;5072903;28;20468;-45
2022/06/11 04:58:25;;;;;;;2.70;1.73;;;12.90;99.90;;;;;;5072553;28;20480;-45
2022/06/11 05:00:53;;;;;;;2.60;1.83;;;12.90;99.90;;;;;;5072799;28;21178;-47
2022/06/11 05:03:20;;;;;;;2.33;1.70;;;12.90;99.90;;;;;;5073233;28;20787;-45
2022/06/11 05:05:47;;;;;;;2.43;2.10;;;12.80;99.90;;;;;;5073070;28;20483;-45
2022/06/11 05:08:16;;;;;;;2.73;1.80;;;12.80;99.90;;;;;;5072643;28;20495;-45
2022/06/11 05:10:43;;;;;;;2.40;1.77;;;12.70;99.90;;;;;;5072639;28;20551;-48
2022/06/11 05:13:11;;;;;;;2.60;2.10;;;12.80;99.90;;;;;;5072506;28;20468;-45
2022/06/11 05:15:41;;;;;;;3.53;2.70;;;12.80;99.90;;;;;;5072148;28;20863;-45
2022/06/11 05:18:09;;;;;;;5.10;2.10;;;12.90;99.90;;;;;;5072567;28;20467;-45
2022/06/11 05:20:36;;;;;;;2.23;1.77;;;12.90;99.90;;;;;;5072076;28;20562;-45
2022/06/11 05:23:04;;;;;;;2.90;2.07;;;12.90;99.90;;;;;;5072683;28;20450;-43
2022/06/11 05:25:35;;;;;;;3.70;2.40;;;12.90;99.90;;;;;;5072768;28;20433;-47
2022/06/11 05:28:03;;;;;;;2.63;2.13;;;13.00;99.90;;;;;;5072418;28;20518;-45
2022/06/11 05:30:32;;;;;;;2.17;1.80;;;13.00;99.90;;;;;;5071921;28;20444;-48
2022/06/11 05:33:00;;;;;;;2.03;1.80;;;13.00;99.90;;;;;;5072142;28;20566;-46
2022/06/11 05:35:30;;;;;;;2.80;1.80;;;13.00;99.90;;;;;;5072366;28;20451;-45
2022/06/11 05:38:00;;;;;;;2.83;2.10;;;13.00;99.90;;;;;;5071922;28;20464;-48
2022/06/11 05:40:32;;;;;;;2.87;2.23;;;13.10;99.90;;;;;;5072239;28;20443;-45
2022/06/11 05:43:00;;;;;;;3.20;2.13;;;13.10;99.90;;;;;;5072067;28;20440;-49
2022/06/11 05:45:31;;;;;;;3.63;1.70;;;13.10;99.90;;;;;;5071979;28;20575;-46
2022/06/11 05:47:59;;;;;;;2.00;1.80;;;13.20;99.90;;;;;;5072270;28;20529;-45
2022/06/11 05:50:31;;;;;;;1.83;1.60;;;13.20;99.90;;;;;;5071731;28;20875;-45
2022/06/11 05:52:59;;;;;;;3.63;1.70;;;13.20;99.90;;;;;;5071814;28;20449;-44
2022/06/11 05:55:30;;;;;;;2.90;1.93;;;13.20;99.90;;;;;;5072055;28;20528;-44
2022/06/11 05:58:02;;;;;;;3.80;2.23;;;13.20;99.90;;;;;;5071463;28;21001;-49
2022/06/11 06:00:30;;;;;;;2.00;1.50;;;13.20;99.90;;;;;;5071741;28;20494;-46
2022/06/11 06:02:57;;;;;;;1.93;1.53;;;13.30;99.90;;;;;;5071485;28;20463;-46
2022/06/11 06:05:28;;;;;;;3.00;2.20;;;13.80;99.90;;;;;;5072096;28;20582;-49
2022/06/11 06:07:55;;;;;;;2.53;2.13;;;14.50;99.90;;;;;;5071468;28;20457;-46
2022/06/11 06:10:24;;;;;;;1.90;1.53;;;15.30;99.90;;;;;;5071499;28;20934;-48
2022/06/11 06:12:51;;;;;;;2.80;1.67;;;15.90;99.90;;;;;;5071354;28;20531;-47
2022/06/11 06:15:26;;;;;;;3.33;1.87;;;16.50;99.90;;;;;;5070963;28;20524;-45
2022/06/11 06:17:54;;;;;;;1.50;1.30;;;17.00;99.90;;;;;;5071712;28;20483;-45
2022/06/11 06:20:24;;;;;;;2.23;1.60;;;17.10;99.90;;;;;;5071264;28;20478;-48
2022/06/11 06:22:51;;;;;;;2.60;1.47;;;17.10;99.90;;;;;;5071486;28;20510;-45
2022/06/11 06:25:19;;;;;;;2.13;1.87;;;16.90;99.90;;;;;;5071507;28;20870;-46
2022/06/11 06:27:47;;;;;;;2.10;1.73;;;16.70;99.90;;;;;;5070158;28;20520;-47
2022/06/11 06:30:14;;;;;;;2.20;1.97;;;16.60;99.90;;;;;;5070821;28;20447;-49
2022/06/11 06:32:42;;;;;;;2.50;2.30;;;16.50;99.90;;;;;;5071752;28;20930;-45
2022/06/11 06:35:10;;;;;;;3.00;2.07;;;16.50;99.90;;;;;;5071244;28;20444;-47
2022/06/11 06:37:37;;;;;;;3.00;2.20;;;16.50;99.90;;;;;;5071015;28;20518;-46
2022/06/11 06:40:05;;;;;;;3.10;1.70;;;16.50;99.90;;;;;;5071082;28;20507;-45
2022/06/11 06:42:32;;;;;;;2.73;2.03;;;16.30;99.90;;;;;;5071432;28;20478;-46
2022/06/11 06:44:59;;;;;;;2.47;1.90;;;16.10;99.90;;;;;;5071277;28;20494;-46
2022/06/11 06:47:26;;;;;;;2.80;2.03;;;15.90;99.90;;;;;;5071009;28;20518;-45
2022/06/11 06:49:54;;;;;;;2.07;1.83;;;15.80;99.90;;;;;;5071206;28;20468;-49
2022/06/11 06:52:22;;;;;;;2.10;1.80;;;15.90;99.90;;;;;;5071025;28;20444;-47
2022/06/11 06:54:49;;;;;;;2.07;1.73;;;15.80;99.90;;;;;;5071162;28;21000;-49
2022/06/11 06:57:16;;;;;;;2.80;2.03;;;15.70;99.90;;;;;;5070568;28;20510;-45
2022/06/11 06:59:43;;;;;;;2.00;1.60;;;15.60;99.90;;;;;;5070716;28;20480;-45
2022/06/11 07:02:10;;;;;;;2.57;2.10;;;15.60;99.90;;;;;;5071115;28;20965;-47
2022/06/11 07:04:38;;;;;;;2.40;2.10;;;15.50;99.90;;;;;;5071171;28;20440;-46
2022/06/11 07:07:06;;;;;;;2.23;2.03;;;15.50;99.90;;;;;;5070689;28;20463;-45
2022/06/11 07:09:33;;;;;;;3.43;2.23;;;15.50;99.90;;;;;;5071017;28;20515;-45
2022/06/11 07:12:00;;;;;;;2.40;2.03;;;15.50;99.90;;;;;;5070746;28;20527;-45
2022/06/11 07:14:27;;;;;;;3.23;2.30;;;15.60;99.90;;;;;;5070534;28;20528;-45
2022/06/11 07:16:59;;;;;;;2.33;1.83;;;15.80;99.90;;;;;;5070798;28;20935;-49
2022/06/11 07:19:32;;;;;;;2.00;1.80;;;16.10;99.90;;;;;;5070534;28;20504;-46
2022/06/11 07:22:04;;;;;;;5.00;2.33;;;16.40;99.90;;;;;;5071152;28;20933;-50
2022/06/11 07:24:36;;;;;;;2.53;2.00;;;16.70;99.90;;;;;;5070886;28;20440;-46
2022/06/11 07:27:08;;;;;;;2.27;2.00;;;16.70;99.90;;;;;;5070890;28;20469;-48
2022/06/11 07:29:38;;;;;;;3.60;2.23;;;16.80;99.90;;;;;;5070697;28;20443;-47
2022/06/11 07:32:11;;;;;;;2.10;1.90;;;17.10;99.90;;;;;;5070633;28;20478;-47
2022/06/11 07:34:38;;;;;;;3.70;1.90;;;17.30;99.90;;;;;;5070639;28;20449;-47
2022/06/11 07:37:05;;;;;;;5.30;2.90;;;17.60;99.90;;;;;;5070534;28;20441;-45
2022/06/11 07:39:34;;;;;;;5.10;2.30;;;17.80;99.90;;;;;;5072292;28;20888;-46
2022/06/11 07:42:00;;;;;;;2.53;2.27;;;18.00;99.90;;;;;;5074580;28;20468;-46
2022/06/11 07:44:28;;;;;;;2.30;2.00;;;18.00;99.90;;;;;;5074671;28;20450;-47
2022/06/11 07:46:55;;;;;;;3.20;2.10;;;18.10;99.90;;;;;;5074124;28;20471;-45
2022/06/11 07:49:21;;;;;;;2.77;2.03;;;18.20;99.90;;;;;;5074095;28;20488;-47
2022/06/11 07:51:48;;;;;;;2.87;1.93;;;18.00;99.90;;;;;;5074060;28;20444;-49
2022/06/11 07:54:15;;;;;;;7.30;2.43;;;18.00;99.90;;;;;;5074295;28;20480;-46
2022/06/11 07:56:44;;;;;;;1.97;1.80;;;18.20;99.90;;;;;;5074144;28;20967;-45
2022/06/11 07:59:11;;;;;;;2.30;1.80;;;18.10;99.90;;;;;;5130078;22;20586;-48
2022/06/11 08:01:38;;;;;;;1.93;1.73;;;18.20;99.90;;;;;;5074256;28;20519;-48
2022/06/11 08:04:05;;;;;;;1.87;1.57;;;18.00;99.90;;;;;;5073998;28;20440;-47
2022/06/11 08:06:32;;;;;;;3.63;2.60;;;17.80;99.90;;;;;;5073800;28;20444;-47
2022/06/11 08:08:59;;;;;;;7.17;3.00;;;17.50;99.90;;;;;;5073791;28;20868;-47
2022/06/11 08:11:26;;;;;;;2.20;1.70;;;17.40;99.90;;;;;;5073755;28;20479;-49
2022/06/11 08:13:54;;;;;;;2.00;1.70;;;17.40;99.90;;;;;;5073971;28;20439;-47
2022/06/11 08:16:21;;;;;;;2.70;1.77;;;17.40;99.90;;;;;;5073445;28;20476;-47
2022/06/11 08:18:48;;;;;;;2.93;2.03;;;17.50;99.90;;;;;;5073564;28;20830;-49
2022/06/11 08:21:15;;;;;;;2.10;1.63;;;17.60;99.90;;;;;;5073745;28;20490;-47
2022/06/11 08:23:42;;;;;;;2.53;2.30;;;17.70;99.90;;;;;;5073824;28;20468;-47
2022/06/11 08:26:09;;;;;;;2.00;1.90;;;17.80;99.90;;;;;;5073559;28;20445;-47
2022/06/11 08:28:36;;;;;;;2.10;1.90;;;18.20;99.90;;;;;;5073656;28;20551;-47
2022/06/11 08:31:05;;;;;;;2.43;1.87;;;18.40;99.90;;;;;;5073448;28;20436;-48
2022/06/11 08:33:33;;;;;;;2.07;1.77;;;18.70;99.90;;;;;;5074033;28;20802;-47
2022/06/11 08:36:00;;;;;;;2.30;1.67;;;18.90;99.90;;;;;;5073616;28;20446;-47
2022/06/11 08:38:27;;;;;;;2.03;1.77;;;18.80;99.90;;;;;;5073446;28;20496;-47
2022/06/11 08:40:55;;;;;;;2.00;1.67;;;18.60;99.90;;;;;;5073206;28;20472;-48
2022/06/11 08:43:26;;;;;;;2.00;1.80;;;18.60;99.90;;;;;;5073709;28;20986;-48
2022/06/11 08:45:56;;;;;;;2.20;1.80;;;18.80;99.90;;;;;;5073534;28;20479;-48
2022/06/11 08:48:35;;;;;;;3.93;1.90;;;18.90;99.90;;;;;;5073227;28;20509;-49
2022/06/11 08:51:11;;;;;;;2.47;2.10;;;19.10;99.90;;;;;;5072361;28;20458;-47
2022/06/11 08:53:39;;;;;;;2.43;1.70;;;19.10;99.90;;;;;;5073134;28;20898;-48
2022/06/11 08:56:21;;;;;;;2.30;1.97;;;19.20;99.90;;;;;;5072924;28;20494;-51
2022/06/11 08:59:06;;;;;;;2.57;1.70;;;19.10;99.90;;;;;;5072347;28;20472;-47
2022/06/11 09:01:48;;;;;;;3.33;1.43;;;19.10;99.90;;;;;;5073722;28;20468;-47
2022/06/11 09:04:39;;;;;;;3.30;2.00;;;19.10;99.90;;;;;;5073365;28;20436;-48
2022/06/11 09:07:32;;;;;;;1.70;1.60;;;18.90;99.90;;;;;;5072998;28;20480;-48
2022/06/11 09:10:26;;;;;;;2.30;2.10;;;19.00;99.90;;;;;;5072520;28;20472;-47
2022/06/11 09:13:20;;;;;;;2.20;2.00;;;18.90;99.90;;;;;;5072603;28;20926;-47
2022/06/11 09:15:56;;;;;;;2.60;2.40;;;19.10;99.90;;;;;;5072351;28;20444;-50
2022/06/11 09:18:46;;;;;;;3.27;1.90;;;19.10;99.90;;;;;;5072481;28;20502;-47
2022/06/11 09:21:30;;;;;;;2.70;1.80;;;19.20;99.90;;;;;;5072688;28;20515;-47
2022/06/11 09:24:25;;;;;;;2.63;2.03;;;19.40;99.90;;;;;;5072695;28;20472;-47
2022/06/11 09:26:59;;;;;;;2.50;2.30;;;19.40;99.90;;;;;;5072207;28;20484;-47
2022/06/11 09:29:33;;;;;;;2.60;2.20;;;19.30;99.90;;;;;;5072052;28;20823;-49
2022/06/11 09:32:07;;;;;;;2.63;2.43;;;19.30;99.90;;;;;;5072722;28;20444;-51
2022/06/11 09:34:40;;;;;;;4.70;3.53;;;19.40;99.90;;;;;;5072384;28;20436;-48
2022/06/11 09:37:14;;;;;;;3.23;2.60;;;19.40;99.90;;;;;;5072016;28;20791;-47
2022/06/11 09:39:45;;;;;;;5.83;3.20;;;19.60;99.90;;;;;;5072184;28;20476;-49
2022/06/11 09:42:36;;;;;;;3.87;2.20;;;19.70;99.90;;;;;;5072166;28;20881;-48
2022/06/11 09:45:10;;;;;;;1.87;1.67;;;19.80;99.90;;;;;;5071968;28;20891;-47
2022/06/11 09:47:49;;;;;;;2.17;1.40;;;19.90;99.90;;;;;;5071836;28;20444;-47
2022/06/11 09:50:22;;;;;;;4.70;2.67;;;20.00;99.90;;;;;;5071976;28;20489;-48
2022/06/11 09:53:02;;;;;;;2.20;2.00;;;20.20;99.90;;;;;;5072252;28;20451;-47
2022/06/11 09:55:34;;;;;;;3.40;2.60;;;20.20;99.90;;;;;;5072085;28;20526;-48
2022/06/11 09:58:09;;;;;;;3.80;1.93;;;20.20;99.90;;;;;;5071610;28;21049;-48
2022/06/11 10:00:41;;;;;;;2.27;2.07;;;20.40;99.90;;;;;;5071692;28;20534;-49
2022/06/11 10:03:26;;;;;;;2.13;1.77;;;20.40;99.90;;;;;;5070710;28;20448;-48
2022/06/11 10:06:00;;;;;;;4.77;2.87;;;20.50;99.90;;;;;;5071967;28;20451;-48
2022/06/11 10:08:38;;;;;;;5.20;2.60;;;20.60;99.90;;;;;;5071514;28;20469;-50
2022/06/11 10:11:11;;;;;;;3.60;2.50;;;20.60;99.90;;;;;;5071342;28;20519;-49
2022/06/11 10:13:42;;;;;;;2.40;2.20;;;20.60;99.90;;;;;;5071650;28;20487;-47
2022/06/11 10:16:21;;;;;;;3.50;2.60;;;20.70;99.90;;;;;;5071481;28;20493;-50
2022/06/11 10:18:49;;;;;;;2.40;2.03;;;20.80;99.90;;;;;;5071517;28;20460;-49
2022/06/11 10:21:19;;;;;;;3.43;2.43;;;20.70;99.90;;;;;;5071741;28;20482;-48
2022/06/11 10:23:53;;;;;;;2.47;2.27;;;20.70;99.90;;;;;;5071690;28;20879;-48
2022/06/11 10:26:25;;;;;;;11.70;6.43;;;20.70;99.90;;;;;;5071447;28;20501;-51
2022/06/11 10:29:00;;;;;;;4.70;3.70;;;20.80;99.90;;;;;;5071403;28;20487;-49
2022/06/11 10:31:33;;;;;;;5.47;2.50;;;20.90;99.90;;;;;;5071497;28;20464;-48
2022/06/11 10:34:05;;;;;;;5.03;2.93;;;20.90;99.90;;;;;;5071255;28;20502;-49
2022/06/11 10:36:35;;;;;;;15.07;8.73;;;21.00;99.90;;;;;;5071331;28;20448;-51
2022/06/11 10:39:11;;;;;;;2.77;2.50;;;21.10;99.90;;;;;;5071106;28;20471;-47
2022/06/11 10:41:44;;;;;;;2.50;2.30;;;21.20;99.90;;;;;;5071659;28;20805;-48
2022/06/11 10:44:20;;;;;;;4.23;2.10;;;21.30;99.90;;;;;;5071949;28;20440;-47
2022/06/11 10:46:47;;;;;;;1.83;1.50;;;21.30;99.90;;;;;;5071630;28;20626;-47
2022/06/11 10:49:18;;;;;;;2.63;1.80;;;21.30;99.90;;;;;;5070528;28;20463;-48
2022/06/11 10:51:53;;;;;;;2.57;1.83;;;21.40;99.90;;;;;;5071190;28;20531;-50
2022/06/11 10:54:24;;;;;;;2.20;1.80;;;21.40;99.90;;;;;;5071438;28;20543;-48
2022/06/11 10:56:56;;;;;;;2.87;1.63;;;21.50;99.90;;;;;;5071075;28;20577;-48
2022/06/11 10:59:28;;;;;;;1.87;1.77;;;21.60;99.90;;;;;;5070662;28;20905;-48
2022/06/11 11:02:02;;;;;;;1.87;1.70;;;21.60;99.90;;;;;;5071222;28;20515;-49
2022/06/11 11:04:37;;;;;;;6.10;2.30;;;21.60;99.90;;;;;;5070906;28;20483;-48
2022/06/11 11:07:18;;;;;;;2.10;1.43;;;21.60;99.90;;;;;;5070568;28;20991;-50
2022/06/11 11:09:47;;;;;;;11.80;2.47;;;21.70;99.90;;;;;;5070207;28;20492;-49
2022/06/11 11:12:24;;;;;;;10.73;2.40;;;21.80;99.90;;;;;;5070375;28;20440;-47
2022/06/11 11:15:01;;;;;;;165.70;21.87;;;22.00;99.90;;;;;;5072486;28;20476;-51
2022/06/11 11:17:30;;;;;;;474.53;60.20;;;22.10;99.90;;;;;;5074334;28;20436;-47
2022/06/11 11:22:57;;;;;;;9.77;2.63;;;22.20;99.90;;;;;;5074245;28;20432;-50
2022/06/11 11:25:34;;;;;;;4.00;1.77;;;22.30;99.90;;;;;;5074551;28;20455;-49
2022/06/11 11:28:02;;;;;;;4.40;1.73;;;22.30;99.90;;;;;;5074352;28;20460;-47
2022/06/11 11:30:35;;;;;;;6.33;1.80;;;22.40;99.90;;;;;;5074348;28;20519;-48
2022/06/11 11:33:24;;;;;;;3.43;1.80;;;22.40;99.50;;;;;;5074687;28;20440;-49
2022/06/11 11:36:02;;;;;;;1.60;1.10;;;22.40;99.90;;;;;;5074673;28;20468;-49
2022/06/11 11:38:29;;;;;;;3.47;1.63;;;22.50;99.40;;;;;;5073727;28;20987;-47
2022/06/11 11:41:00;;;;;;;4.67;1.43;;;22.50;98.90;;;;;;5072828;28;20471;-48
2022/06/11 11:43:36;;;;;;;2.00;1.40;;;22.50;98.80;;;;;;5072430;28;20941;-48
2022/06/11 11:46:06;;;;;;;2.70;1.23;;;22.50;98.20;;;;;;5073619;28;20440;-48
2022/06/11 11:48:36;;;;;;;1.83;1.17;;;22.50;98.90;;;;;;5074586;28;20461;-47
2022/06/11 11:51:06;;;;;;;2.30;1.67;;;22.50;98.50;;;;;;5073559;28;20472;-50
2022/06/11 11:53:43;;;;;;;1.60;1.40;;;22.50;98.80;;;;;;5074070;28;20991;-48
2022/06/11 11:56:28;;;;;;;1.80;1.47;;;22.60;98.40;;;;;;5074367;28;20471;-48
2022/06/11 11:58:57;;;;;;;3.10;1.77;;;22.60;99.80;;;;;;5073355;28;20475;-48
2022/06/11 12:01:27;;;;;;;3.83;1.70;;;22.70;99.80;;;;;;5074236;28;20937;-49
2022/06/11 12:04:03;;;;;;;1.90;1.50;;;22.80;98.50;;;;;;5072727;28;20510;-48
2022/06/11 12:06:35;;;;;;;2.50;1.63;;;22.80;99.90;;;;;;5072661;28;20523;-50
2022/06/11 12:09:03;;;;;;;2.00;1.30;;;22.80;99.90;;;;;;5072564;28;20543;-48
2022/06/11 12:11:37;;;;;;;2.60;1.60;;;22.80;98.70;;;;;;5072504;28;20445;-48
2022/06/11 12:14:13;;;;;;;2.87;1.40;;;22.70;98.70;;;;;;5073973;28;20443;-48
2022/06/11 12:16:43;;;;;;;2.13;1.30;;;22.80;99.90;;;;;;5073927;28;20468;-48
2022/06/11 12:19:19;;;;;;;2.33;1.57;;;22.90;99.90;;;;;;5073700;28;20547;-47
2022/06/11 12:21:51;;;;;;;2.30;1.50;;;22.90;99.30;;;;;;5073694;28;21015;-47
2022/06/11 12:24:23;;;;;;;167.67;19.33;;;23.00;98.00;;;;;;5073988;28;20814;-48
2022/06/11 12:26:57;;;;;;;4.03;1.30;;;23.10;97.50;;;;;;5072606;28;20440;-48
2022/06/11 12:29:29;;;;;;;2.03;1.50;;;23.10;97.30;;;;;;5072812;28;20495;-50
2022/06/11 12:32:00;;;;;;;2.23;1.60;;;23.10;96.80;;;;;;5072132;28;20994;-48
2022/06/11 12:34:30;;;;;;;1.83;1.40;;;23.10;96.90;;;;;;5072103;28;20436;-50
2022/06/11 12:37:00;;;;;;;16.07;2.50;;;23.10;97.00;;;;;;5072003;28;20472;-48
2022/06/11 12:39:47;;;;;;;2.53;1.37;;;23.10;96.50;;;;;;5071586;28;21000;-48
2022/06/11 12:42:24;;;;;;;2.27;2.07;;;23.10;95.40;;;;;;5071717;28;20479;-48
2022/06/11 12:45:10;;;;;;;2.47;1.20;;;23.10;96.10;;;;;;5072433;28;20801;-48
2022/06/11 12:47:54;;;;;;;2.63;1.50;;;23.10;95.00;;;;;;5073160;28;20444;-48
2022/06/11 12:50:38;;;;;;;1.97;1.60;;;23.20;96.00;;;;;;5073281;28;20476;-48
2022/06/11 12:53:12;;;;;;;1.67;1.53;;;23.10;93.50;;;;;;5073162;28;20937;-47
2022/06/11 12:56:04;;;;;;;2.03;1.20;;;23.20;95.00;;;;;;5072712;28;20475;-47
2022/06/11 12:58:48;;;;;;;6.40;1.90;;;23.20;93.70;;;;;;5072288;28;20492;-47
2022/06/11 13:01:23;;;;;;;2.33;1.30;;;23.20;93.30;;;;;;5073029;28;20504;-50
2022/06/11 13:04:24;;;;;;;2.93;1.60;;;23.30;94.40;;;;;;5073015;28;20446;-48
2022/06/11 13:07:03;;;;;;;1.80;1.50;;;23.30;94.20;;;;;;5072018;28;20474;-48
2022/06/11 13:09:41;;;;;;;9.77;2.07;;;23.30;92.40;;;;;;5070226;28;21034;-49
2022/06/11 13:12:26;;;;;;;2.70;2.20;;;23.30;92.50;;;;;;5071762;28;20779;-47